sensor_id;sensor_type;location;lat;lon;timestamp;temperature;humidity
72206;DHT22;60111;48.286;7.812;2023-02-01T00:01:04;5.10;78.10
72206;DHT22;60111;48.286;7.812;2023-02-01T00:03:33;5.10;77.90
72206;DHT22;60111;48.286;7.812;2023-02-01T00:06:06;5.10;77.90
72206;DHT22;60111;48.286;7.812;2023-02-01T00:08:39;5.20;77.80
72206;DHT22;60111;48.286;7.812;2023-02-01T00:11:12;5.20;77.40
72206;DHT22;60111;48.286;7.812;2023-02-01T00:13:45;5.20;77.50
72206;DHT22;60111;48.286;7.812;2023-02-01T00:16:20;5.10;77.80
72206;DHT22;60111;48.286;7.812;2023-02-01T00:18:59;5.20;77.80
72206;DHT22;60111;48.286;7.812;2023-02-01T00:21:32;5.10;77.90
72206;DHT22;60111;48.286;7.812;2023-02-01T00:24:05;5.20;77.50
72206;DHT22;60111;48.286;7.812;2023-02-01T00:26:39;5.20;77.40
72206;DHT22;60111;48.286;7.812;2023-02-01T00:29:19;5.20;77.40
72206;DHT22;60111;48.286;7.812;2023-02-01T00:31:50;5.20;77.10
72206;DHT22;60111;48.286;7.812;2023-02-01T00:34:23;5.20;77.10
72206;DHT22;60111;48.286;7.812;2023-02-01T00:36:56;5.30;76.60
72206;DHT22;60111;48.286;7.812;2023-02-01T00:39:28;5.30;76.20
72206;DHT22;60111;48.286;7.812;2023-02-01T00:42:01;5.20;76.30
72206;DHT22;60111;48.286;7.812;2023-02-01T00:44:33;5.20;76.50
72206;DHT22;60111;48.286;7.812;2023-02-01T00:47:26;5.20;76.60
72206;DHT22;60111;48.286;7.812;2023-02-01T00:50:00;5.10;76.80
72206;DHT22;60111;48.286;7.812;2023-02-01T00:52:32;5.20;76.40
72206;DHT22;60111;48.286;7.812;2023-02-01T00:55:05;5.20;76.50
72206;DHT22;60111;48.286;7.812;2023-02-01T00:57:38;5.10;76.70
72206;DHT22;60111;48.286;7.812;2023-02-01T01:00:11;5.10;76.60
72206;DHT22;60111;48.286;7.812;2023-02-01T01:02:43;5.10;76.80
72206;DHT22;60111;48.286;7.812;2023-02-01T01:05:16;5.10;76.70
72206;DHT22;60111;48.286;7.812;2023-02-01T01:07:48;5.10;77.00
72206;DHT22;60111;48.286;7.812;2023-02-01T01:10:21;5.10;76.60
72206;DHT22;60111;48.286;7.812;2023-02-01T01:12:54;5.10;76.70
72206;DHT22;60111;48.286;7.812;2023-02-01T01:15:26;5.10;76.80
72206;DHT22;60111;48.286;7.812;2023-02-01T01:17:59;5.00;76.80
72206;DHT22;60111;48.286;7.812;2023-02-01T01:20:33;5.00;76.90
72206;DHT22;60111;48.286;7.812;2023-02-01T01:23:06;5.10;76.90
72206;DHT22;60111;48.286;7.812;2023-02-01T01:25:40;5.00;77.30
72206;DHT22;60111;48.286;7.812;2023-02-01T01:28:13;5.00;77.80
72206;DHT22;60111;48.286;7.812;2023-02-01T01:30:45;5.00;78.10
72206;DHT22;60111;48.286;7.812;2023-02-01T01:33:18;5.00;78.20
72206;DHT22;60111;48.286;7.812;2023-02-01T01:35:50;4.90;78.60
72206;DHT22;60111;48.286;7.812;2023-02-01T01:38:23;4.90;78.40
72206;DHT22;60111;48.286;7.812;2023-02-01T01:40:55;4.90;78.10
72206;DHT22;60111;48.286;7.812;2023-02-01T01:46:29;5.00;78.30
72206;DHT22;60111;48.286;7.812;2023-02-01T01:49:14;4.90;78.20
72206;DHT22;60111;48.286;7.812;2023-02-01T01:51:56;4.90;78.40
72206;DHT22;60111;48.286;7.812;2023-02-01T01:54:32;4.90;78.20
72206;DHT22;60111;48.286;7.812;2023-02-01T01:57:06;4.90;78.00
72206;DHT22;60111;48.286;7.812;2023-02-01T01:59:42;4.80;78.30
72206;DHT22;60111;48.286;7.812;2023-02-01T02:02:15;4.80;77.80
72206;DHT22;60111;48.286;7.812;2023-02-01T02:04:48;4.90;77.70
72206;DHT22;60111;48.286;7.812;2023-02-01T02:07:24;4.90;77.50
72206;DHT22;60111;48.286;7.812;2023-02-01T02:09:57;4.90;77.50
72206;DHT22;60111;48.286;7.812;2023-02-01T02:12:30;4.90;77.20
72206;DHT22;60111;48.286;7.812;2023-02-01T02:15:03;4.90;77.20
72206;DHT22;60111;48.286;7.812;2023-02-01T02:17:54;4.90;76.80
72206;DHT22;60111;48.286;7.812;2023-02-01T02:20:52;4.90;76.90
72206;DHT22;60111;48.286;7.812;2023-02-01T02:29:40;4.90;76.50
72206;DHT22;60111;48.286;7.812;2023-02-01T02:32:36;4.90;76.20
72206;DHT22;60111;48.286;7.812;2023-02-01T02:37:59;4.80;76.50
72206;DHT22;60111;48.286;7.812;2023-02-01T02:40:41;4.80;76.80
72206;DHT22;60111;48.286;7.812;2023-02-01T02:43:23;4.80;76.60
72206;DHT22;60111;48.286;7.812;2023-02-01T02:46:21;4.80;76.40
72206;DHT22;60111;48.286;7.812;2023-02-01T02:51:55;4.80;76.40
72206;DHT22;60111;48.286;7.812;2023-02-01T02:54:47;4.80;76.40
72206;DHT22;60111;48.286;7.812;2023-02-01T02:57:27;4.80;76.20
72206;DHT22;60111;48.286;7.812;2023-02-01T03:00:20;4.70;76.50
72206;DHT22;60111;48.286;7.812;2023-02-01T03:03:12;4.80;76.20
72206;DHT22;60111;48.286;7.812;2023-02-01T03:06:02;4.70;76.20
72206;DHT22;60111;48.286;7.812;2023-02-01T03:08:37;4.80;75.80
72206;DHT22;60111;48.286;7.812;2023-02-01T03:11:11;4.70;76.10
72206;DHT22;60111;48.286;7.812;2023-02-01T03:13:45;4.80;75.90
72206;DHT22;60111;48.286;7.812;2023-02-01T03:16:18;4.80;75.60
72206;DHT22;60111;48.286;7.812;2023-02-01T03:18:57;4.80;76.10
72206;DHT22;60111;48.286;7.812;2023-02-01T03:21:29;4.70;76.50
72206;DHT22;60111;48.286;7.812;2023-02-01T03:24:03;4.70;76.50
72206;DHT22;60111;48.286;7.812;2023-02-01T03:26:36;4.70;76.90
72206;DHT22;60111;48.286;7.812;2023-02-01T03:29:11;4.70;77.50
72206;DHT22;60111;48.286;7.812;2023-02-01T03:31:42;4.70;77.30
72206;DHT22;60111;48.286;7.812;2023-02-01T03:34:15;4.60;77.40
72206;DHT22;60111;48.286;7.812;2023-02-01T03:36:55;4.70;77.30
72206;DHT22;60111;48.286;7.812;2023-02-01T03:39:24;4.70;77.00
72206;DHT22;60111;48.286;7.812;2023-02-01T03:41:56;4.70;77.00
72206;DHT22;60111;48.286;7.812;2023-02-01T03:44:38;4.60;77.20
72206;DHT22;60111;48.286;7.812;2023-02-01T03:47:25;4.60;77.60
72206;DHT22;60111;48.286;7.812;2023-02-01T03:49:58;4.60;77.50
72206;DHT22;60111;48.286;7.812;2023-02-01T03:52:42;4.70;77.00
72206;DHT22;60111;48.286;7.812;2023-02-01T03:55:05;4.70;77.00
72206;DHT22;60111;48.286;7.812;2023-02-01T03:57:39;4.70;77.00
72206;DHT22;60111;48.286;7.812;2023-02-01T04:00:19;4.70;77.00
72206;DHT22;60111;48.286;7.812;2023-02-01T04:02:51;4.70;76.80
72206;DHT22;60111;48.286;7.812;2023-02-01T04:05:23;4.60;77.10
72206;DHT22;60111;48.286;7.812;2023-02-01T04:07:55;4.70;76.60
72206;DHT22;60111;48.286;7.812;2023-02-01T04:10:26;4.60;76.70
72206;DHT22;60111;48.286;7.812;2023-02-01T04:12:58;4.60;76.30
72206;DHT22;60111;48.286;7.812;2023-02-01T04:15:30;4.60;76.70
72206;DHT22;60111;48.286;7.812;2023-02-01T04:18:02;4.50;76.70
72206;DHT22;60111;48.286;7.812;2023-02-01T04:20:34;4.60;76.70
72206;DHT22;60111;48.286;7.812;2023-02-01T04:23:05;4.60;76.80
72206;DHT22;60111;48.286;7.812;2023-02-01T04:25:37;4.50;77.00
72206;DHT22;60111;48.286;7.812;2023-02-01T04:28:09;4.50;77.10
72206;DHT22;60111;48.286;7.812;2023-02-01T04:30:41;4.50;77.10
72206;DHT22;60111;48.286;7.812;2023-02-01T04:33:13;4.50;77.20
72206;DHT22;60111;48.286;7.812;2023-02-01T04:35:44;4.50;77.30
72206;DHT22;60111;48.286;7.812;2023-02-01T04:38:16;4.50;77.10
72206;DHT22;60111;48.286;7.812;2023-02-01T04:40:48;4.50;77.30
72206;DHT22;60111;48.286;7.812;2023-02-01T04:43:20;4.50;77.10
72206;DHT22;60111;48.286;7.812;2023-02-01T04:45:52;4.50;77.10
72206;DHT22;60111;48.286;7.812;2023-02-01T04:48:24;4.50;77.30
72206;DHT22;60111;48.286;7.812;2023-02-01T04:50:56;4.50;77.30
72206;DHT22;60111;48.286;7.812;2023-02-01T04:53:28;4.50;77.20
72206;DHT22;60111;48.286;7.812;2023-02-01T04:56:00;4.50;76.90
72206;DHT22;60111;48.286;7.812;2023-02-01T04:58:32;4.50;76.70
72206;DHT22;60111;48.286;7.812;2023-02-01T05:01:05;4.50;76.90
72206;DHT22;60111;48.286;7.812;2023-02-01T05:03:37;4.50;76.60
72206;DHT22;60111;48.286;7.812;2023-02-01T05:06:09;4.60;76.50
72206;DHT22;60111;48.286;7.812;2023-02-01T05:08:41;4.60;76.60
72206;DHT22;60111;48.286;7.812;2023-02-01T05:11:13;4.60;76.60
72206;DHT22;60111;48.286;7.812;2023-02-01T05:14:03;4.50;76.70
72206;DHT22;60111;48.286;7.812;2023-02-01T05:16:35;4.50;77.10
72206;DHT22;60111;48.286;7.812;2023-02-01T05:19:07;4.40;77.20
72206;DHT22;60111;48.286;7.812;2023-02-01T05:21:38;4.40;77.30
72206;DHT22;60111;48.286;7.812;2023-02-01T05:24:10;4.40;77.20
72206;DHT22;60111;48.286;7.812;2023-02-01T05:26:47;4.40;77.20
72206;DHT22;60111;48.286;7.812;2023-02-01T05:29:19;4.40;77.50
72206;DHT22;60111;48.286;7.812;2023-02-01T05:31:51;4.40;77.60
72206;DHT22;60111;48.286;7.812;2023-02-01T05:34:23;4.30;77.80
72206;DHT22;60111;48.286;7.812;2023-02-01T05:36:55;4.40;77.80
72206;DHT22;60111;48.286;7.812;2023-02-01T05:39:26;4.40;77.60
72206;DHT22;60111;48.286;7.812;2023-02-01T05:41:58;4.40;77.70
72206;DHT22;60111;48.286;7.812;2023-02-01T05:44:30;4.40;77.80
72206;DHT22;60111;48.286;7.812;2023-02-01T05:47:02;4.40;77.90
72206;DHT22;60111;48.286;7.812;2023-02-01T05:49:34;4.40;77.90
72206;DHT22;60111;48.286;7.812;2023-02-01T05:52:06;4.50;77.50
72206;DHT22;60111;48.286;7.812;2023-02-01T05:54:37;4.40;77.80
72206;DHT22;60111;48.286;7.812;2023-02-01T05:57:09;4.40;78.00
72206;DHT22;60111;48.286;7.812;2023-02-01T05:59:41;4.40;77.90
72206;DHT22;60111;48.286;7.812;2023-02-01T06:02:15;4.30;78.30
72206;DHT22;60111;48.286;7.812;2023-02-01T06:04:47;4.30;78.60
72206;DHT22;60111;48.286;7.812;2023-02-01T06:07:19;4.30;78.50
72206;DHT22;60111;48.286;7.812;2023-02-01T06:09:50;4.40;78.60
72206;DHT22;60111;48.286;7.812;2023-02-01T06:12:22;4.40;78.70
72206;DHT22;60111;48.286;7.812;2023-02-01T06:14:54;4.40;78.80
72206;DHT22;60111;48.286;7.812;2023-02-01T06:20:17;4.40;78.40
72206;DHT22;60111;48.286;7.812;2023-02-01T06:22:49;4.40;78.70
72206;DHT22;60111;48.286;7.812;2023-02-01T06:25:21;4.40;78.60
72206;DHT22;60111;48.286;7.812;2023-02-01T06:27:53;4.40;78.90
72206;DHT22;60111;48.286;7.812;2023-02-01T06:30:24;4.40;78.70
72206;DHT22;60111;48.286;7.812;2023-02-01T06:32:57;4.40;78.60
72206;DHT22;60111;48.286;7.812;2023-02-01T06:35:30;4.40;78.60
72206;DHT22;60111;48.286;7.812;2023-02-01T06:38:01;4.40;78.60
72206;DHT22;60111;48.286;7.812;2023-02-01T06:40:33;4.30;78.80
72206;DHT22;60111;48.286;7.812;2023-02-01T06:43:06;4.40;78.70
72206;DHT22;60111;48.286;7.812;2023-02-01T06:45:38;4.30;78.80
72206;DHT22;60111;48.286;7.812;2023-02-01T06:48:10;4.40;79.00
72206;DHT22;60111;48.286;7.812;2023-02-01T06:50:42;4.40;78.80
72206;DHT22;60111;48.286;7.812;2023-02-01T06:53:13;4.30;79.00
72206;DHT22;60111;48.286;7.812;2023-02-01T06:55:56;4.30;79.00
72206;DHT22;60111;48.286;7.812;2023-02-01T06:58:27;4.30;78.90
72206;DHT22;60111;48.286;7.812;2023-02-01T07:00:58;4.30;79.20
72206;DHT22;60111;48.286;7.812;2023-02-01T07:03:31;4.40;79.20
72206;DHT22;60111;48.286;7.812;2023-02-01T07:06:03;4.40;79.70
72206;DHT22;60111;48.286;7.812;2023-02-01T07:08:36;4.40;79.70
72206;DHT22;60111;48.286;7.812;2023-02-01T07:11:11;4.40;79.80
72206;DHT22;60111;48.286;7.812;2023-02-01T07:13:44;4.30;80.10
72206;DHT22;60111;48.286;7.812;2023-02-01T07:16:17;4.30;80.30
72206;DHT22;60111;48.286;7.812;2023-02-01T07:18:49;4.30;81.00
72206;DHT22;60111;48.286;7.812;2023-02-01T07:21:22;4.30;81.20
72206;DHT22;60111;48.286;7.812;2023-02-01T07:23:54;4.30;81.60
72206;DHT22;60111;48.286;7.812;2023-02-01T07:26:26;4.30;81.90
72206;DHT22;60111;48.286;7.812;2023-02-01T07:28:58;4.20;82.70
72206;DHT22;60111;48.286;7.812;2023-02-01T07:31:31;4.30;82.70
72206;DHT22;60111;48.286;7.812;2023-02-01T07:34:03;4.20;82.60
72206;DHT22;60111;48.286;7.812;2023-02-01T07:36:35;4.20;82.70
72206;DHT22;60111;48.286;7.812;2023-02-01T07:39:07;4.20;82.80
72206;DHT22;60111;48.286;7.812;2023-02-01T07:41:39;4.20;82.90
72206;DHT22;60111;48.286;7.812;2023-02-01T07:44:10;4.20;82.40
72206;DHT22;60111;48.286;7.812;2023-02-01T07:46:42;4.20;82.10
72206;DHT22;60111;48.286;7.812;2023-02-01T07:49:14;4.20;81.60
72206;DHT22;60111;48.286;7.812;2023-02-01T07:51:48;4.20;81.90
72206;DHT22;60111;48.286;7.812;2023-02-01T07:54:20;4.30;81.60
72206;DHT22;60111;48.286;7.812;2023-02-01T07:56:51;4.20;82.00
72206;DHT22;60111;48.286;7.812;2023-02-01T07:59:23;4.30;81.60
72206;DHT22;60111;48.286;7.812;2023-02-01T08:01:55;4.30;81.50
72206;DHT22;60111;48.286;7.812;2023-02-01T08:04:27;4.30;81.80
72206;DHT22;60111;48.286;7.812;2023-02-01T08:06:59;4.30;82.20
72206;DHT22;60111;48.286;7.812;2023-02-01T08:09:31;4.30;82.30
72206;DHT22;60111;48.286;7.812;2023-02-01T08:12:03;4.30;81.90
72206;DHT22;60111;48.286;7.812;2023-02-01T08:14:35;4.20;82.40
72206;DHT22;60111;48.286;7.812;2023-02-01T08:17:07;4.20;82.50
72206;DHT22;60111;48.286;7.812;2023-02-01T08:19:39;4.30;82.40
72206;DHT22;60111;48.286;7.812;2023-02-01T08:22:11;4.40;82.00
72206;DHT22;60111;48.286;7.812;2023-02-01T08:24:42;4.50;81.80
72206;DHT22;60111;48.286;7.812;2023-02-01T08:27:15;4.50;81.60
72206;DHT22;60111;48.286;7.812;2023-02-01T08:29:47;4.50;81.50
72206;DHT22;60111;48.286;7.812;2023-02-01T08:32:18;4.50;81.30
72206;DHT22;60111;48.286;7.812;2023-02-01T08:34:50;4.40;81.60
72206;DHT22;60111;48.286;7.812;2023-02-01T08:37:22;4.50;81.60
72206;DHT22;60111;48.286;7.812;2023-02-01T08:39:54;4.60;81.40
72206;DHT22;60111;48.286;7.812;2023-02-01T08:42:26;4.60;81.10
72206;DHT22;60111;48.286;7.812;2023-02-01T08:45:16;4.60;81.10
72206;DHT22;60111;48.286;7.812;2023-02-01T08:47:50;4.60;80.50
72206;DHT22;60111;48.286;7.812;2023-02-01T08:50:22;4.70;80.50
72206;DHT22;60111;48.286;7.812;2023-02-01T08:52:55;4.80;80.20
72206;DHT22;60111;48.286;7.812;2023-02-01T08:55:26;4.70;80.40
72206;DHT22;60111;48.286;7.812;2023-02-01T08:57:59;4.70;80.10
72206;DHT22;60111;48.286;7.812;2023-02-01T09:00:31;4.80;80.20
72206;DHT22;60111;48.286;7.812;2023-02-01T09:03:03;4.70;80.60
72206;DHT22;60111;48.286;7.812;2023-02-01T09:05:35;4.70;80.90
72206;DHT22;60111;48.286;7.812;2023-02-01T09:08:07;4.60;81.60
72206;DHT22;60111;48.286;7.812;2023-02-01T09:10:39;4.60;82.10
72206;DHT22;60111;48.286;7.812;2023-02-01T09:13:12;4.60;82.50
72206;DHT22;60111;48.286;7.812;2023-02-01T09:15:44;4.70;82.30
72206;DHT22;60111;48.286;7.812;2023-02-01T09:18:16;4.80;82.60
72206;DHT22;60111;48.286;7.812;2023-02-01T09:20:47;4.80;83.10
72206;DHT22;60111;48.286;7.812;2023-02-01T09:23:19;4.80;82.70
72206;DHT22;60111;48.286;7.812;2023-02-01T09:25:58;4.90;82.70
72206;DHT22;60111;48.286;7.812;2023-02-01T09:28:28;4.90;83.10
72206;DHT22;60111;48.286;7.812;2023-02-01T09:31:00;4.80;83.20
72206;DHT22;60111;48.286;7.812;2023-02-01T09:33:32;4.90;83.60
72206;DHT22;60111;48.286;7.812;2023-02-01T09:36:04;4.90;83.80
72206;DHT22;60111;48.286;7.812;2023-02-01T09:38:36;4.90;84.00
72206;DHT22;60111;48.286;7.812;2023-02-01T09:41:20;4.90;83.40
72206;DHT22;60111;48.286;7.812;2023-02-01T09:46:46;5.00;83.00
72206;DHT22;60111;48.286;7.812;2023-02-01T09:49:19;5.20;82.50
72206;DHT22;60111;48.286;7.812;2023-02-01T09:51:51;5.70;81.40
72206;DHT22;60111;48.286;7.812;2023-02-01T09:54:29;6.00;79.50
72206;DHT22;60111;48.286;7.812;2023-02-01T09:57:08;6.10;79.40
72206;DHT22;60111;48.286;7.812;2023-02-01T09:59:40;6.40;77.50
72206;DHT22;60111;48.286;7.812;2023-02-01T10:02:17;6.90;75.90
72206;DHT22;60111;48.286;7.812;2023-02-01T10:04:46;7.00;75.20
72206;DHT22;60111;48.286;7.812;2023-02-01T10:07:25;6.80;75.20
72206;DHT22;60111;48.286;7.812;2023-02-01T10:09:59;6.60;75.90
72206;DHT22;60111;48.286;7.812;2023-02-01T10:12:56;6.50;76.30
72206;DHT22;60111;48.286;7.812;2023-02-01T10:15:28;6.30;77.30
72206;DHT22;60111;48.286;7.812;2023-02-01T10:18:03;6.60;78.30
72206;DHT22;60111;48.286;7.812;2023-02-01T10:20:43;6.90;76.90
72206;DHT22;60111;48.286;7.812;2023-02-01T10:25:53;7.00;75.70
72206;DHT22;60111;48.286;7.812;2023-02-01T10:28:26;6.80;75.80
72206;DHT22;60111;48.286;7.812;2023-02-01T10:30:58;6.70;76.80
72206;DHT22;60111;48.286;7.812;2023-02-01T10:33:41;6.60;76.80
72206;DHT22;60111;48.286;7.812;2023-02-01T10:36:16;6.50;77.60
72206;DHT22;60111;48.286;7.812;2023-02-01T10:38:45;6.30;78.00
72206;DHT22;60111;48.286;7.812;2023-02-01T10:41:19;6.20;77.70
72206;DHT22;60111;48.286;7.812;2023-02-01T10:43:54;6.10;78.00
72206;DHT22;60111;48.286;7.812;2023-02-01T10:46:25;6.10;77.80
72206;DHT22;60111;48.286;7.812;2023-02-01T10:48:58;6.10;78.30
72206;DHT22;60111;48.286;7.812;2023-02-01T10:54:19;6.10;78.60
72206;DHT22;60111;48.286;7.812;2023-02-01T10:56:51;6.00;79.10
72206;DHT22;60111;48.286;7.812;2023-02-01T10:59:24;6.10;79.20
72206;DHT22;60111;48.286;7.812;2023-02-01T11:02:19;6.00;78.80
72206;DHT22;60111;48.286;7.812;2023-02-01T11:04:49;6.10;79.30
72206;DHT22;60111;48.286;7.812;2023-02-01T11:07:24;6.10;79.00
72206;DHT22;60111;48.286;7.812;2023-02-01T11:09:56;6.20;78.80
72206;DHT22;60111;48.286;7.812;2023-02-01T11:12:32;6.20;78.70
72206;DHT22;60111;48.286;7.812;2023-02-01T11:17:45;6.30;78.00
72206;DHT22;60111;48.286;7.812;2023-02-01T11:20:19;6.20;78.30
72206;DHT22;60111;48.286;7.812;2023-02-01T11:22:54;6.20;78.20
72206;DHT22;60111;48.286;7.812;2023-02-01T11:25:47;6.20;77.90
72206;DHT22;60111;48.286;7.812;2023-02-01T11:28:21;6.30;78.10
72206;DHT22;60111;48.286;7.812;2023-02-01T11:30:53;6.40;77.30
72206;DHT22;60111;48.286;7.812;2023-02-01T11:33:29;6.40;77.20
72206;DHT22;60111;48.286;7.812;2023-02-01T11:36:06;6.30;76.90
72206;DHT22;60111;48.286;7.812;2023-02-01T11:38:51;6.40;76.50
72206;DHT22;60111;48.286;7.812;2023-02-01T11:41:23;6.40;76.50
72206;DHT22;60111;48.286;7.812;2023-02-01T11:44:01;6.40;76.20
72206;DHT22;60111;48.286;7.812;2023-02-01T11:46:34;6.40;75.90
72206;DHT22;60111;48.286;7.812;2023-02-01T11:49:13;6.40;76.00
72206;DHT22;60111;48.286;7.812;2023-02-01T11:51:47;6.40;75.20
72206;DHT22;60111;48.286;7.812;2023-02-01T11:54:24;6.40;75.30
72206;DHT22;60111;48.286;7.812;2023-02-01T12:07:39;6.50;74.50
72206;DHT22;60111;48.286;7.812;2023-02-01T12:12:46;6.50;73.40
72206;DHT22;60111;48.286;7.812;2023-02-01T12:23:23;6.60;73.10
72206;DHT22;60111;48.286;7.812;2023-02-01T12:31:15;6.70;72.70
72206;DHT22;60111;48.286;7.812;2023-02-01T12:36:57;6.70;71.40
72206;DHT22;60111;48.286;7.812;2023-02-01T12:39:22;6.80;70.50
72206;DHT22;60111;48.286;7.812;2023-02-01T12:41:59;6.90;69.00
72206;DHT22;60111;48.286;7.812;2023-02-01T12:47:03;7.00;67.50
72206;DHT22;60111;48.286;7.812;2023-02-01T12:49:57;7.00;65.30
72206;DHT22;60111;48.286;7.812;2023-02-01T12:52:18;7.10;64.40
72206;DHT22;60111;48.286;7.812;2023-02-01T12:54:42;7.00;65.30
72206;DHT22;60111;48.286;7.812;2023-02-01T12:57:24;7.00;65.30
72206;DHT22;60111;48.286;7.812;2023-02-01T13:00:01;6.90;66.20
72206;DHT22;60111;48.286;7.812;2023-02-01T13:05:31;7.00;66.10
72206;DHT22;60111;48.286;7.812;2023-02-01T13:13:11;6.90;66.50
72206;DHT22;60111;48.286;7.812;2023-02-01T13:15:55;6.90;66.50
72206;DHT22;60111;48.286;7.812;2023-02-01T13:18:25;7.00;66.20
72206;DHT22;60111;48.286;7.812;2023-02-01T13:21:08;7.00;65.90
72206;DHT22;60111;48.286;7.812;2023-02-01T13:23:40;6.90;65.90
72206;DHT22;60111;48.286;7.812;2023-02-01T13:26:13;7.00;65.20
72206;DHT22;60111;48.286;7.812;2023-02-01T13:34:32;6.90;66.90
72206;DHT22;60111;48.286;7.812;2023-02-01T13:37:19;6.90;67.20
72206;DHT22;60111;48.286;7.812;2023-02-01T13:42:28;6.90;66.40
72206;DHT22;60111;48.286;7.812;2023-02-01T13:45:04;6.90;66.70
72206;DHT22;60111;48.286;7.812;2023-02-01T13:47:42;6.90;66.80
72206;DHT22;60111;48.286;7.812;2023-02-01T13:50:25;6.80;66.80
72206;DHT22;60111;48.286;7.812;2023-02-01T13:53:00;6.90;66.40
72206;DHT22;60111;48.286;7.812;2023-02-01T13:55:34;6.90;66.20
72206;DHT22;60111;48.286;7.812;2023-02-01T14:03:48;6.90;66.30
72206;DHT22;60111;48.286;7.812;2023-02-01T14:11:45;6.80;65.10
72206;DHT22;60111;48.286;7.812;2023-02-01T14:19:43;6.80;64.90
72206;DHT22;60111;48.286;7.812;2023-02-01T14:24:58;6.90;64.40
72206;DHT22;60111;48.286;7.812;2023-02-01T14:27:30;6.80;64.70
72206;DHT22;60111;48.286;7.812;2023-02-01T14:30:11;6.80;63.20
72206;DHT22;60111;48.286;7.812;2023-02-01T14:32:38;6.90;62.50
72206;DHT22;60111;48.286;7.812;2023-02-01T14:35:19;6.90;61.90
72206;DHT22;60111;48.286;7.812;2023-02-01T14:40:42;6.90;61.60
72206;DHT22;60111;48.286;7.812;2023-02-01T14:43:14;6.90;60.40
72206;DHT22;60111;48.286;7.812;2023-02-01T14:45:47;6.90;60.30
72206;DHT22;60111;48.286;7.812;2023-02-01T14:50:54;6.90;60.60
72206;DHT22;60111;48.286;7.812;2023-02-01T14:53:32;6.80;61.00
72206;DHT22;60111;48.286;7.812;2023-02-01T14:58:47;6.90;62.10
72206;DHT22;60111;48.286;7.812;2023-02-01T15:06:42;6.80;62.20
72206;DHT22;60111;48.286;7.812;2023-02-01T15:09:14;6.80;62.10
72206;DHT22;60111;48.286;7.812;2023-02-01T15:11:57;6.80;61.80
72206;DHT22;60111;48.286;7.812;2023-02-01T15:14:34;6.70;61.90
72206;DHT22;60111;48.286;7.812;2023-02-01T15:17:03;6.70;62.10
72206;DHT22;60111;48.286;7.812;2023-02-01T15:19:35;6.70;61.80
72206;DHT22;60111;48.286;7.812;2023-02-01T15:22:13;6.80;61.50
72206;DHT22;60111;48.286;7.812;2023-02-01T15:24:40;6.80;62.10
72206;DHT22;60111;48.286;7.812;2023-02-01T15:27:12;6.80;62.90
72206;DHT22;60111;48.286;7.812;2023-02-01T15:29:50;6.80;63.30
72206;DHT22;60111;48.286;7.812;2023-02-01T15:32:31;6.80;63.60
72206;DHT22;60111;48.286;7.812;2023-02-01T15:35:02;6.70;63.70
72206;DHT22;60111;48.286;7.812;2023-02-01T15:37:34;6.70;63.50
72206;DHT22;60111;48.286;7.812;2023-02-01T15:42:51;6.80;62.00
72206;DHT22;60111;48.286;7.812;2023-02-01T15:45:25;6.80;62.20
72206;DHT22;60111;48.286;7.812;2023-02-01T15:47:56;6.70;62.60
72206;DHT22;60111;48.286;7.812;2023-02-01T15:50:32;6.70;62.90
72206;DHT22;60111;48.286;7.812;2023-02-01T15:53:02;6.70;63.00
72206;DHT22;60111;48.286;7.812;2023-02-01T15:55:39;6.70;63.10
72206;DHT22;60111;48.286;7.812;2023-02-01T15:58:20;6.60;63.30
72206;DHT22;60111;48.286;7.812;2023-02-01T16:00:50;6.60;63.30
72206;DHT22;60111;48.286;7.812;2023-02-01T16:03:26;6.60;63.20
72206;DHT22;60111;48.286;7.812;2023-02-01T16:09:18;6.60;63.10
72206;DHT22;60111;48.286;7.812;2023-02-01T16:11:28;6.60;63.40
72206;DHT22;60111;48.286;7.812;2023-02-01T16:14:01;6.60;63.80
72206;DHT22;60111;48.286;7.812;2023-02-01T16:16:33;6.60;64.50
72206;DHT22;60111;48.286;7.812;2023-02-01T16:19:04;6.60;65.10
72206;DHT22;60111;48.286;7.812;2023-02-01T16:21:36;6.60;65.30
72206;DHT22;60111;48.286;7.812;2023-02-01T16:24:08;6.60;64.80
72206;DHT22;60111;48.286;7.812;2023-02-01T16:26:40;6.60;64.70
72206;DHT22;60111;48.286;7.812;2023-02-01T16:29:12;6.50;64.60
72206;DHT22;60111;48.286;7.812;2023-02-01T16:31:46;6.60;64.20
72206;DHT22;60111;48.286;7.812;2023-02-01T16:34:20;6.60;63.90
72206;DHT22;60111;48.286;7.812;2023-02-01T16:36:51;6.50;63.90
72206;DHT22;60111;48.286;7.812;2023-02-01T16:39:25;6.50;63.40
72206;DHT22;60111;48.286;7.812;2023-02-01T16:41:58;6.50;63.00
72206;DHT22;60111;48.286;7.812;2023-02-01T16:44:30;6.60;62.30
72206;DHT22;60111;48.286;7.812;2023-02-01T16:47:02;6.70;61.90
72206;DHT22;60111;48.286;7.812;2023-02-01T16:49:34;6.80;62.20
72206;DHT22;60111;48.286;7.812;2023-02-01T16:52:08;6.90;62.30
72206;DHT22;60111;48.286;7.812;2023-02-01T16:54:40;6.80;62.80
72206;DHT22;60111;48.286;7.812;2023-02-01T16:57:13;6.80;63.30
72206;DHT22;60111;48.286;7.812;2023-02-01T16:59:46;6.60;64.10
72206;DHT22;60111;48.286;7.812;2023-02-01T17:02:19;6.70;64.00
72206;DHT22;60111;48.286;7.812;2023-02-01T17:04:52;6.70;64.50
72206;DHT22;60111;48.286;7.812;2023-02-01T17:07:24;6.60;64.80
72206;DHT22;60111;48.286;7.812;2023-02-01T17:09:57;6.60;65.50
72206;DHT22;60111;48.286;7.812;2023-02-01T17:12:29;6.60;66.00
72206;DHT22;60111;48.286;7.812;2023-02-01T17:15:03;6.50;66.40
72206;DHT22;60111;48.286;7.812;2023-02-01T17:17:36;6.40;66.70
72206;DHT22;60111;48.286;7.812;2023-02-01T17:20:16;6.40;67.30
72206;DHT22;60111;48.286;7.812;2023-02-01T17:22:42;6.30;67.60
72206;DHT22;60111;48.286;7.812;2023-02-01T17:25:16;6.30;68.00
72206;DHT22;60111;48.286;7.812;2023-02-01T17:27:48;6.20;68.40
72206;DHT22;60111;48.286;7.812;2023-02-01T17:30:20;6.20;68.70
72206;DHT22;60111;48.286;7.812;2023-02-01T17:32:52;6.10;68.70
72206;DHT22;60111;48.286;7.812;2023-02-01T17:35:26;6.10;68.70
72206;DHT22;60111;48.286;7.812;2023-02-01T17:37:57;6.20;68.40
72206;DHT22;60111;48.286;7.812;2023-02-01T17:40:29;6.30;67.70
72206;DHT22;60111;48.286;7.812;2023-02-01T17:43:01;6.30;67.60
72206;DHT22;60111;48.286;7.812;2023-02-01T17:45:37;6.30;67.50
72206;DHT22;60111;48.286;7.812;2023-02-01T17:48:10;6.30;67.50
72206;DHT22;60111;48.286;7.812;2023-02-01T17:50:42;6.40;67.30
72206;DHT22;60111;48.286;7.812;2023-02-01T17:53:14;6.40;67.60
72206;DHT22;60111;48.286;7.812;2023-02-01T17:55:46;6.30;68.00
72206;DHT22;60111;48.286;7.812;2023-02-01T17:58:18;6.30;68.40
72206;DHT22;60111;48.286;7.812;2023-02-01T18:00:51;6.30;68.70
72206;DHT22;60111;48.286;7.812;2023-02-01T18:03:25;6.20;69.00
72206;DHT22;60111;48.286;7.812;2023-02-01T18:05:57;6.20;69.20
72206;DHT22;60111;48.286;7.812;2023-02-01T18:08:30;6.10;69.40
72206;DHT22;60111;48.286;7.812;2023-02-01T18:11:04;6.10;69.50
72206;DHT22;60111;48.286;7.812;2023-02-01T18:13:36;6.00;70.00
72206;DHT22;60111;48.286;7.812;2023-02-01T18:16:19;6.00;69.70
72206;DHT22;60111;48.286;7.812;2023-02-01T18:18:50;6.10;68.80
72206;DHT22;60111;48.286;7.812;2023-02-01T18:21:22;6.00;68.80
72206;DHT22;60111;48.286;7.812;2023-02-01T18:23:54;6.00;68.40